createdAt,value
2023-03-28T00:01:02.165Z,1014.97
2023-03-28T00:02:06.515Z,1015.04
2023-03-28T00:03:10.734Z,1015.10
2023-03-28T00:04:14.889Z,1015.13
2023-03-28T00:05:19.035Z,1015.18
2023-03-28T00:06:23.072Z,1015.24
2023-03-28T00:07:27.355Z,1015.22
2023-03-28T00:08:31.489Z,1015.31
2023-03-28T00:09:35.569Z,1015.24
2023-03-28T00:10:39.869Z,1015.23
2023-03-28T00:11:44.025Z,1015.22
2023-03-28T00:12:48.067Z,1015.20
2023-03-28T00:13:52.274Z,1015.22
2023-03-28T00:14:56.390Z,1015.23
2023-03-28T00:16:00.672Z,1015.23
2023-03-28T00:17:04.644Z,1015.26
2023-03-28T00:18:08.721Z,1015.30
2023-03-28T00:19:12.955Z,1015.27
2023-03-28T00:20:17.250Z,1015.31
2023-03-28T00:21:21.326Z,1015.30
2023-03-28T00:22:25.555Z,1015.32
2023-03-28T00:23:29.709Z,1015.33
2023-03-28T00:24:33.839Z,1015.36
2023-03-28T00:25:38.046Z,1015.35
2023-03-28T00:26:42.151Z,1015.36
2023-03-28T00:28:00.374Z,1015.37
2023-03-28T00:29:03.257Z,1015.37
2023-03-28T00:30:08.267Z,1015.38
2023-03-28T00:31:12.018Z,1015.41
2023-03-28T00:32:16.021Z,1015.41
2023-03-28T00:33:20.373Z,1015.43
2023-03-28T00:34:24.472Z,1015.43
2023-03-28T00:35:28.653Z,1015.42
2023-03-28T00:36:32.934Z,1015.43
2023-03-28T00:37:37.064Z,1015.44
2023-03-28T00:38:41.065Z,1015.46
2023-03-28T00:39:45.301Z,1015.50
2023-03-28T00:40:49.544Z,1015.50
2023-03-28T00:41:53.621Z,1015.51
2023-03-28T00:42:57.845Z,1015.54
2023-03-28T00:44:01.963Z,1015.58
2023-03-28T00:45:06.176Z,1015.56
2023-03-28T00:46:10.570Z,1015.58
2023-03-28T00:47:14.383Z,1015.58
2023-03-28T00:48:18.703Z,1015.60
2023-03-28T00:49:22.847Z,1015.61
2023-03-28T00:50:27.001Z,1015.64
2023-03-28T00:51:31.241Z,1015.65
2023-03-28T00:52:35.315Z,1015.64
2023-03-28T00:53:39.489Z,1015.67
2023-03-28T00:54:43.756Z,1015.65
2023-03-28T00:55:47.829Z,1015.65
2023-03-28T00:56:52.293Z,1015.70
2023-03-28T00:57:56.170Z,1015.74
2023-03-28T00:59:00.344Z,1015.75
2023-03-28T01:00:04.402Z,1015.75
2023-03-28T01:01:08.776Z,1015.76
2023-03-28T01:02:12.996Z,1015.79
2023-03-28T01:03:17.148Z,1015.79
2023-03-28T01:04:21.213Z,1015.81
2023-03-28T01:05:25.413Z,1015.82
2023-03-28T01:06:29.644Z,1015.84
2023-03-28T01:07:33.929Z,1015.85
2023-03-28T01:08:38.116Z,1015.86
2023-03-28T01:09:42.083Z,1015.90
2023-03-28T01:10:46.192Z,1015.89
2023-03-28T01:11:50.408Z,1015.88
2023-03-28T01:12:54.567Z,1015.89
2023-03-28T01:13:58.820Z,1015.91
2023-03-28T01:15:02.903Z,1015.90
2023-03-28T01:16:07.108Z,1015.95
2023-03-28T01:17:11.233Z,1015.93
2023-03-28T01:18:15.413Z,1015.93
2023-03-28T01:19:19.472Z,1015.96
2023-03-28T01:20:23.794Z,1016.00
2023-03-28T01:21:27.885Z,1015.99
2023-03-28T01:22:31.971Z,1016.00
2023-03-28T01:23:36.148Z,1016.02
2023-03-28T01:24:40.342Z,1016.03
2023-03-28T01:25:44.394Z,1016.03
2023-03-28T01:26:48.683Z,1016.03
2023-03-28T01:27:52.926Z,1016.03
2023-03-28T01:28:56.932Z,1016.00
2023-03-28T01:30:01.195Z,1016.01
2023-03-28T01:31:05.324Z,1016.03
2023-03-28T01:32:09.487Z,1016.07
2023-03-28T01:33:13.717Z,1016.07
2023-03-28T01:34:17.715Z,1016.10
2023-03-28T01:35:21.914Z,1016.12
2023-03-28T01:36:34.638Z,1016.14
2023-03-28T01:37:30.377Z,1016.15
2023-03-28T01:38:34.465Z,1016.16
2023-03-28T01:39:38.808Z,1016.20
2023-03-28T01:40:42.844Z,1016.23
2023-03-28T01:41:47.012Z,1016.24
2023-03-28T01:42:51.199Z,1016.26
2023-03-28T01:43:55.383Z,1016.24
2023-03-28T01:45:02.578Z,1016.27
2023-03-28T01:46:05.704Z,1016.28
2023-03-28T01:47:09.780Z,1016.33
2023-03-28T01:48:14.058Z,1016.34
2023-03-28T01:49:18.068Z,1016.34
2023-03-28T01:50:22.324Z,1016.32
2023-03-28T01:51:26.460Z,1016.30
2023-03-28T01:52:30.720Z,1016.33
2023-03-28T01:53:34.887Z,1016.34
2023-03-28T01:54:38.955Z,1016.36
2023-03-28T01:55:43.190Z,1016.38
2023-03-28T01:56:47.468Z,1016.41
2023-03-28T01:57:51.566Z,1016.43
2023-03-28T01:58:55.592Z,1016.43
2023-03-28T01:59:59.841Z,1016.44
2023-03-28T02:01:04.093Z,1016.47
2023-03-28T02:02:08.197Z,1016.48
2023-03-28T02:03:12.605Z,1016.48
2023-03-28T02:04:20.813Z,1016.47
2023-03-28T02:05:20.925Z,1016.52
2023-03-28T02:06:24.892Z,1016.50
2023-03-28T02:07:29.234Z,1016.55
2023-03-28T02:08:33.475Z,1016.57
2023-03-28T02:09:37.686Z,1016.56
2023-03-28T02:10:41.737Z,1016.54
2023-03-28T02:11:45.925Z,1016.54
2023-03-28T02:12:50.048Z,1016.54
2023-03-28T02:13:54.158Z,1016.59
2023-03-28T02:14:58.575Z,1016.58
2023-03-28T02:16:02.954Z,1016.60
2023-03-28T02:17:06.872Z,1016.61
2023-03-28T02:18:11.171Z,1016.61
2023-03-28T02:19:15.380Z,1016.62
2023-03-28T02:20:19.403Z,1016.63
2023-03-28T02:21:23.626Z,1016.62
2023-03-28T02:22:27.856Z,1016.66
2023-03-28T02:23:32.013Z,1016.67
2023-03-28T02:24:36.187Z,1016.68
2023-03-28T02:25:40.469Z,1016.69
2023-03-28T02:26:44.495Z,1016.74
2023-03-28T02:27:48.557Z,1016.75
2023-03-28T02:28:52.833Z,1016.78
2023-03-28T02:29:57.084Z,1016.79
2023-03-28T02:31:01.185Z,1016.81
2023-03-28T02:32:05.294Z,1016.84
2023-03-28T02:33:09.457Z,1016.89
2023-03-28T02:34:13.601Z,1017.05
2023-03-28T02:35:17.806Z,1017.09
2023-03-28T02:36:21.980Z,1017.18
2023-03-28T02:37:26.119Z,1017.20
2023-03-28T02:38:30.295Z,1017.16
2023-03-28T02:39:34.312Z,1017.21
2023-03-28T02:40:38.505Z,1017.19
2023-03-28T02:41:42.549Z,1017.17
2023-03-28T02:42:46.697Z,1017.24
2023-03-28T02:43:50.923Z,1017.23
2023-03-28T02:44:55.081Z,1017.20
2023-03-28T02:45:59.593Z,1017.15
2023-03-28T02:47:03.316Z,1017.19
2023-03-28T02:48:07.547Z,1017.19
2023-03-28T02:49:11.781Z,1017.20
2023-03-28T02:50:15.970Z,1017.22
2023-03-28T02:51:20.066Z,1017.21
2023-03-28T02:52:24.265Z,1017.21
2023-03-28T02:53:29.305Z,1017.22
2023-03-28T02:54:33.107Z,1017.22
2023-03-28T02:55:37.292Z,1017.24
2023-03-28T02:56:41.503Z,1017.25
2023-03-28T02:57:46.520Z,1017.25
2023-03-28T02:58:50.365Z,1017.27
2023-03-28T02:59:54.575Z,1017.27
2023-03-28T03:00:58.709Z,1017.28
2023-03-28T03:02:02.793Z,1017.29
2023-03-28T03:03:07.091Z,1017.30
2023-03-28T03:04:11.260Z,1017.26
2023-03-28T03:05:15.261Z,1017.29
2023-03-28T03:06:19.609Z,1017.30
2023-03-28T03:07:23.774Z,1017.31
2023-03-28T03:08:27.782Z,1017.27
2023-03-28T03:09:32.183Z,1017.30
2023-03-28T03:10:36.269Z,1017.31
2023-03-28T03:11:40.468Z,1017.32
2023-03-28T03:12:44.601Z,1017.31
2023-03-28T03:13:48.751Z,1017.32
2023-03-28T03:14:53.025Z,1017.35
2023-03-28T03:15:57.275Z,1017.33
2023-03-28T03:17:01.353Z,1017.38
2023-03-28T03:18:05.610Z,1017.33
2023-03-28T03:19:09.728Z,1017.34
2023-03-28T03:20:14.013Z,1017.36
2023-03-28T03:21:18.025Z,1017.37
2023-03-28T03:22:22.139Z,1017.41
2023-03-28T03:23:26.567Z,1017.41
2023-03-28T03:24:30.740Z,1017.41
2023-03-28T03:25:34.828Z,1017.42
2023-03-28T03:26:39.114Z,1017.42
2023-03-28T03:27:43.156Z,1017.43
2023-03-28T03:28:47.419Z,1017.45
2023-03-28T03:29:51.622Z,1017.46
2023-03-28T03:30:55.895Z,1017.47
2023-03-28T03:32:00.872Z,1017.47
2023-03-28T03:33:04.813Z,1017.49
2023-03-28T03:34:08.825Z,1017.47
2023-03-28T03:35:13.076Z,1017.50
2023-03-28T03:36:17.280Z,1017.49
2023-03-28T03:37:21.494Z,1017.52
2023-03-28T03:38:25.671Z,1017.54
2023-03-28T03:39:29.941Z,1017.54
2023-03-28T03:40:34.438Z,1017.55
2023-03-28T03:41:38.448Z,1017.56
2023-03-28T03:42:42.595Z,1017.56
2023-03-28T03:43:47.320Z,1017.56
2023-03-28T03:44:50.933Z,1017.57
2023-03-28T03:45:55.046Z,1017.57
2023-03-28T03:46:59.324Z,1017.59
2023-03-28T03:48:03.502Z,1017.60
2023-03-28T03:49:07.704Z,1017.61
2023-03-28T03:50:11.786Z,1017.62
2023-03-28T03:51:15.873Z,1017.63
2023-03-28T03:52:20.081Z,1017.66
2023-03-28T03:53:24.253Z,1017.65
2023-03-28T03:54:28.373Z,1017.65
2023-03-28T03:55:32.489Z,1017.68
2023-03-28T03:56:36.678Z,1017.71
2023-03-28T03:57:40.662Z,1017.72
2023-03-28T03:58:44.868Z,1017.73
2023-03-28T03:59:49.038Z,1017.76
2023-03-28T04:00:53.082Z,1017.76
2023-03-28T04:02:00.428Z,1017.78
2023-03-28T04:03:03.581Z,1017.81
2023-03-28T04:04:07.858Z,1017.80
2023-03-28T04:05:12.039Z,1017.83
2023-03-28T04:06:16.162Z,1017.82
2023-03-28T04:07:20.326Z,1017.83
2023-03-28T04:08:24.479Z,1017.81
2023-03-28T04:09:28.739Z,1017.82
2023-03-28T04:10:32.871Z,1017.81
2023-03-28T04:11:36.940Z,1017.82
2023-03-28T04:12:41.231Z,1017.81
2023-03-28T04:13:45.330Z,1017.81
2023-03-28T04:14:49.534Z,1017.83
2023-03-28T04:15:53.589Z,1017.84
2023-03-28T04:16:57.708Z,1017.85
2023-03-28T04:18:04.848Z,1017.86
2023-03-28T04:19:06.180Z,1017.86
2023-03-28T04:20:10.287Z,1017.90
2023-03-28T04:21:15.421Z,1017.93
2023-03-28T04:22:19.144Z,1017.94
2023-03-28T04:23:23.442Z,1017.96
2023-03-28T04:24:27.554Z,1017.96
2023-03-28T04:25:31.710Z,1017.96
2023-03-28T04:26:36.012Z,1017.96
2023-03-28T04:27:40.127Z,1018.01
2023-03-28T04:28:44.259Z,1018.05
2023-03-28T04:29:48.405Z,1018.05
2023-03-28T04:30:52.591Z,1018.07
2023-03-28T04:31:57.026Z,1018.08
2023-03-28T04:33:01.247Z,1018.09
2023-03-28T04:34:05.210Z,1018.08
2023-03-28T04:35:09.537Z,1018.13
2023-03-28T04:36:13.675Z,1018.12
2023-03-28T04:37:17.883Z,1018.13
2023-03-28T04:38:21.988Z,1018.15
2023-03-28T04:39:26.304Z,1018.17
2023-03-28T04:40:30.366Z,1018.20
2023-03-28T04:41:34.571Z,1018.21
2023-03-28T04:42:38.656Z,1018.24
2023-03-28T04:43:42.851Z,1018.25
2023-03-28T04:44:46.997Z,1018.27
2023-03-28T04:45:51.203Z,1018.28
2023-03-28T04:46:55.324Z,1018.30
2023-03-28T04:48:02.616Z,1018.31
2023-03-28T04:49:05.617Z,1018.34
2023-03-28T04:50:09.882Z,1018.35
2023-03-28T04:51:13.926Z,1018.36
2023-03-28T04:52:18.022Z,1018.36
2023-03-28T04:53:22.149Z,1018.37
2023-03-28T04:54:26.490Z,1018.40
2023-03-28T04:55:30.627Z,1018.40
2023-03-28T04:56:34.803Z,1018.46
2023-03-28T04:57:39.025Z,1018.45
2023-03-28T04:58:43.317Z,1018.50
2023-03-28T04:59:47.400Z,1018.53
2023-03-28T05:00:51.523Z,1018.55
2023-03-28T05:01:55.634Z,1018.57
2023-03-28T05:02:59.847Z,1018.59
2023-03-28T05:04:03.913Z,1018.60
2023-03-28T05:05:08.038Z,1018.61
2023-03-28T05:06:12.124Z,1018.61
2023-03-28T05:07:16.359Z,1018.61
2023-03-28T05:08:26.846Z,1018.62
2023-03-28T05:09:29.690Z,1018.65
2023-03-28T05:10:33.859Z,1018.67
2023-03-28T05:11:37.835Z,1018.65
2023-03-28T05:12:42.017Z,1018.69
2023-03-28T05:13:46.064Z,1018.73
2023-03-28T05:14:50.352Z,1018.76
2023-03-28T05:15:54.873Z,1018.75
2023-03-28T05:16:58.732Z,1018.78
2023-03-28T05:18:02.848Z,1018.81
2023-03-28T05:19:07.164Z,1018.82
2023-03-28T05:20:11.378Z,1018.81
2023-03-28T05:21:15.433Z,1018.82
2023-03-28T05:22:19.582Z,1018.85
2023-03-28T05:23:23.718Z,1018.86
2023-03-28T05:24:27.853Z,1018.85
2023-03-28T05:25:32.143Z,1018.86
2023-03-28T05:26:36.470Z,1018.89
2023-03-28T05:27:40.400Z,1018.92
2023-03-28T05:28:44.638Z,1018.93
2023-03-28T05:29:48.746Z,1018.95
2023-03-28T05:30:52.886Z,1018.94
2023-03-28T05:31:57.171Z,1018.96
2023-03-28T05:33:01.259Z,1018.95
2023-03-28T05:34:05.274Z,1018.99
2023-03-28T05:35:09.618Z,1019.00
2023-03-28T05:36:13.846Z,1018.99
2023-03-28T05:37:32.098Z,1019.00
2023-03-28T05:38:35.139Z,1019.00
2023-03-28T05:39:39.376Z,1019.03
2023-03-28T05:40:43.455Z,1019.05
2023-03-28T05:41:47.713Z,1019.05
2023-03-28T05:42:51.797Z,1019.05
2023-03-28T05:43:55.916Z,1019.07
2023-03-28T05:45:00.196Z,1019.06
2023-03-28T05:46:04.446Z,1019.08
2023-03-28T05:47:08.601Z,1019.06
2023-03-28T05:48:12.834Z,1019.06
2023-03-28T05:49:17.032Z,1019.09
2023-03-28T05:50:21.014Z,1019.09
2023-03-28T05:51:25.452Z,1019.11
2023-03-28T05:52:29.648Z,1019.14
2023-03-28T05:53:33.812Z,1019.16
2023-03-28T05:54:38.095Z,1019.18
2023-03-28T05:55:42.125Z,1019.17
2023-03-28T05:56:46.266Z,1019.20
2023-03-28T05:57:50.557Z,1019.20
2023-03-28T05:58:54.690Z,1019.21
2023-03-28T05:59:58.746Z,1019.25
2023-03-28T06:01:02.983Z,1019.25
2023-03-28T06:02:07.218Z,1019.28
2023-03-28T06:03:16.325Z,1019.29
2023-03-28T06:04:15.670Z,1019.30
2023-03-28T06:05:19.707Z,1019.33
2023-03-28T06:06:23.848Z,1019.33
2023-03-28T06:07:39.344Z,1019.32
2023-03-28T06:08:32.206Z,1019.34
2023-03-28T06:09:36.342Z,1019.34
2023-03-28T06:10:40.446Z,1019.34
2023-03-28T06:11:44.630Z,1019.37
2023-03-28T06:12:48.886Z,1019.39
2023-03-28T06:13:52.941Z,1019.39
2023-03-28T06:14:57.133Z,1019.43
2023-03-28T06:16:01.425Z,1019.45
2023-03-28T06:17:05.593Z,1019.46
2023-03-28T06:18:09.823Z,1019.47
2023-03-28T06:19:18.397Z,1019.50
2023-03-28T06:20:17.987Z,1019.51
2023-03-28T06:21:22.232Z,1019.52
2023-03-28T06:22:26.391Z,1019.51
2023-03-28T06:23:30.403Z,1019.55
2023-03-28T06:24:34.614Z,1019.53
2023-03-28T06:25:38.704Z,1019.52
2023-03-28T06:26:43.021Z,1019.54
2023-03-28T06:27:48.045Z,1019.55
2023-03-28T06:28:51.762Z,1019.58
2023-03-28T06:29:56.025Z,1019.57
2023-03-28T06:31:00.472Z,1019.59
2023-03-28T06:32:04.356Z,1019.63
2023-03-28T06:33:09.457Z,1019.63
2023-03-28T06:34:13.246Z,1019.61
2023-03-28T06:35:17.353Z,1019.61
2023-03-28T06:36:21.589Z,1019.62
2023-03-28T06:37:25.821Z,1019.63
2023-03-28T06:38:30.027Z,1019.66
2023-03-28T06:39:34.190Z,1019.68
2023-03-28T06:40:38.418Z,1019.69
2023-03-28T06:41:42.523Z,1019.71
2023-03-28T06:42:46.705Z,1019.72
2023-03-28T06:43:51.131Z,1019.76
2023-03-28T06:44:55.246Z,1019.79
2023-03-28T06:45:59.323Z,1019.81
2023-03-28T06:47:03.497Z,1019.83
2023-03-28T06:48:07.950Z,1019.84
2023-03-28T06:49:11.938Z,1019.85
2023-03-28T06:50:16.125Z,1019.82
2023-03-28T06:51:20.331Z,1019.86
2023-03-28T06:52:24.515Z,1019.86
2023-03-28T06:53:28.668Z,1019.88
2023-03-28T06:54:32.886Z,1019.88
2023-03-28T06:55:37.045Z,1019.90
2023-03-28T06:56:41.319Z,1019.90
2023-03-28T06:57:45.315Z,1019.93
2023-03-28T06:58:49.609Z,1019.95
2023-03-28T06:59:53.831Z,1019.96
2023-03-28T07:00:58.283Z,1019.97
2023-03-28T07:02:02.379Z,1019.97
2023-03-28T07:03:06.500Z,1020.01
2023-03-28T07:04:10.632Z,1020.03
2023-03-28T07:05:14.799Z,1020.06
2023-03-28T07:06:18.978Z,1020.07
2023-03-28T07:07:23.363Z,1020.09
2023-03-28T07:08:27.558Z,1020.11
2023-03-28T07:09:31.638Z,1020.16
2023-03-28T07:10:35.882Z,1020.16
2023-03-28T07:11:40.259Z,1020.20
2023-03-28T07:12:44.362Z,1020.20
2023-03-28T07:13:48.568Z,1020.19
2023-03-28T07:14:52.802Z,1020.19
2023-03-28T07:15:56.848Z,1020.18
2023-03-28T07:17:01.146Z,1020.19
2023-03-28T07:18:05.301Z,1020.19
2023-03-28T07:19:09.420Z,1020.21
2023-03-28T07:20:13.647Z,1020.22
2023-03-28T07:21:17.898Z,1020.24
2023-03-28T07:22:22.000Z,1020.25
2023-03-28T07:23:26.258Z,1020.30
2023-03-28T07:24:30.283Z,1020.34
2023-03-28T07:25:34.611Z,1020.33
2023-03-28T07:26:38.752Z,1020.37
2023-03-28T07:27:42.918Z,1020.37
2023-03-28T07:28:47.076Z,1020.38
2023-03-28T07:29:51.210Z,1020.39
2023-03-28T07:30:55.386Z,1020.42
2023-03-28T07:31:59.616Z,1020.41
2023-03-28T07:33:14.840Z,1020.39
2023-03-28T07:34:07.981Z,1020.39
2023-03-28T07:35:12.135Z,1020.41
2023-03-28T07:36:16.353Z,1020.44
2023-03-28T07:37:20.539Z,1020.46
2023-03-28T07:38:24.782Z,1020.52
2023-03-28T07:39:28.877Z,1020.55
2023-03-28T07:40:33.017Z,1020.50
2023-03-28T07:41:37.219Z,1020.50
2023-03-28T07:42:55.395Z,1020.52
2023-03-28T07:43:59.516Z,1020.53
2023-03-28T07:45:03.320Z,1020.52
2023-03-28T07:46:07.442Z,1020.54
2023-03-28T07:47:25.767Z,1020.56
2023-03-28T07:48:28.680Z,1020.66
2023-03-28T07:49:32.802Z,1020.72
2023-03-28T07:50:36.981Z,1020.77
2023-03-28T07:51:41.198Z,1020.79
2023-03-28T07:52:45.381Z,1020.77
2023-03-28T07:53:49.536Z,1020.83
2023-03-28T07:54:53.771Z,1020.86
2023-03-28T07:55:57.953Z,1020.88
2023-03-28T07:57:02.128Z,1020.90
2023-03-28T07:58:06.282Z,1020.91
2023-03-28T07:59:10.449Z,1020.90
2023-03-28T08:00:14.686Z,1020.91
2023-03-28T08:01:18.915Z,1020.94
2023-03-28T08:02:23.054Z,1020.92
2023-03-28T08:03:27.109Z,1020.95
2023-03-28T08:04:31.290Z,1020.95
2023-03-28T08:05:35.398Z,1020.99
2023-03-28T08:06:39.494Z,1020.99
2023-03-28T08:07:43.951Z,1021.00
2023-03-28T08:08:48.022Z,1021.01
2023-03-28T08:09:52.216Z,1021.02
2023-03-28T08:10:56.415Z,1021.03
2023-03-28T08:12:00.611Z,1021.00
2023-03-28T08:13:04.794Z,1021.03
2023-03-28T08:14:09.019Z,1021.03
2023-03-28T08:15:13.200Z,1021.01
2023-03-28T08:16:17.458Z,1021.08
2023-03-28T08:17:21.677Z,1021.07
2023-03-28T08:18:25.797Z,1021.09
2023-03-28T08:19:29.981Z,1021.05
2023-03-28T08:20:34.107Z,1021.08
2023-03-28T08:21:38.338Z,1021.06
2023-03-28T08:22:42.531Z,1021.07
2023-03-28T08:23:46.718Z,1021.07
2023-03-28T08:24:50.889Z,1021.09
2023-03-28T08:25:55.084Z,1021.09
2023-03-28T08:26:59.261Z,1021.09
2023-03-28T08:28:03.445Z,1021.09
2023-03-28T08:29:07.725Z,1021.12
2023-03-28T08:30:11.903Z,1021.11
2023-03-28T08:31:16.281Z,1021.13
2023-03-28T08:32:20.280Z,1021.13
2023-03-28T08:33:24.453Z,1021.17
2023-03-28T08:34:28.701Z,1021.14
2023-03-28T08:35:32.930Z,1021.15
2023-03-28T08:36:37.008Z,1021.17
2023-03-28T08:39:08.107Z,1021.18
2023-03-28T08:40:12.269Z,1021.19
2023-03-28T08:41:16.387Z,1021.21
2023-03-28T08:42:20.706Z,1021.23
2023-03-28T08:43:24.905Z,1021.20
2023-03-28T08:44:29.063Z,1021.22
2023-03-28T08:45:33.297Z,1021.23
2023-03-28T08:46:43.491Z,1021.26
2023-03-28T08:47:46.088Z,1021.24
2023-03-28T08:48:50.259Z,1021.25
2023-03-28T08:49:54.518Z,1021.27
2023-03-28T08:50:58.989Z,1021.29
2023-03-28T08:52:02.926Z,1021.29
2023-03-28T08:53:07.136Z,1021.26
2023-03-28T08:54:11.401Z,1021.27
2023-03-28T08:55:15.540Z,1021.26
2023-03-28T08:56:19.695Z,1021.26
2023-03-28T08:57:23.891Z,1021.27
2023-03-28T08:58:28.099Z,1021.27
2023-03-28T08:59:32.351Z,1021.29
2023-03-28T09:00:36.541Z,1021.26
2023-03-28T09:01:41.004Z,1021.28
2023-03-28T09:02:45.067Z,1021.29
2023-03-28T09:03:49.217Z,1021.30
2023-03-28T09:04:53.553Z,1021.33
2023-03-28T09:05:57.583Z,1021.31
2023-03-28T09:07:01.826Z,1021.32
2023-03-28T09:08:06.180Z,1021.32
2023-03-28T09:09:10.239Z,1021.34
2023-03-28T09:10:14.432Z,1021.34
2023-03-28T09:11:18.717Z,1021.35
2023-03-28T09:12:22.962Z,1021.35
2023-03-28T09:13:27.119Z,1021.38
2023-03-28T09:14:31.293Z,1021.33
2023-03-28T09:15:35.501Z,1021.38
2023-03-28T09:16:39.719Z,1021.39
2023-03-28T09:17:44.056Z,1021.40
2023-03-28T09:18:48.187Z,1021.43
2023-03-28T09:20:06.408Z,1021.44
2023-03-28T09:21:09.459Z,1021.42
2023-03-28T09:22:15.948Z,1021.45
2023-03-28T09:23:17.871Z,1021.42
2023-03-28T09:24:22.053Z,1021.46
2023-03-28T09:25:26.274Z,1021.42
2023-03-28T09:26:30.466Z,1021.40
2023-03-28T09:27:34.645Z,1021.41
2023-03-28T09:28:38.945Z,1021.40
2023-03-28T09:29:43.138Z,1021.43
2023-03-28T09:30:47.424Z,1021.42
2023-03-28T09:31:51.650Z,1021.47
2023-03-28T09:32:55.831Z,1021.42
2023-03-28T09:34:00.003Z,1021.45
2023-03-28T09:35:04.297Z,1021.46
2023-03-28T09:36:08.598Z,1021.44
2023-03-28T09:37:12.630Z,1021.45
2023-03-28T09:38:16.987Z,1021.44
2023-03-28T09:39:21.092Z,1021.42
2023-03-28T09:40:25.315Z,1021.47
2023-03-28T09:41:29.498Z,1021.46
2023-03-28T09:42:33.785Z,1021.45
2023-03-28T09:43:37.937Z,1021.46
2023-03-28T09:44:53.614Z,1021.50
2023-03-28T09:45:46.426Z,1021.51
2023-03-28T09:46:50.562Z,1021.49
2023-03-28T09:47:54.932Z,1021.47
2023-03-28T09:48:59.093Z,1021.47
2023-03-28T09:50:12.226Z,1021.43
2023-03-28T09:51:07.690Z,1021.45
2023-03-28T09:52:11.831Z,1021.45
2023-03-28T09:53:16.005Z,1021.45
2023-03-28T09:54:20.313Z,1021.41
2023-03-28T09:55:24.482Z,1021.42
2023-03-28T09:56:28.767Z,1021.48
2023-03-28T09:57:32.846Z,1021.49
2023-03-28T09:58:37.052Z,1021.50
2023-03-28T09:59:41.272Z,1021.51
2023-03-28T10:00:45.535Z,1021.49
2023-03-28T10:01:49.760Z,1021.47
2023-03-28T10:02:53.931Z,1021.48
2023-03-28T10:03:58.242Z,1021.47
2023-03-28T10:05:04.757Z,1021.44
2023-03-28T10:06:06.592Z,1021.47
2023-03-28T10:07:10.898Z,1021.45
2023-03-28T10:08:15.139Z,1021.43
2023-03-28T10:09:19.365Z,1021.48
2023-03-28T10:10:23.673Z,1021.49
2023-03-28T10:11:27.810Z,1021.48
2023-03-28T10:12:32.089Z,1021.50
2023-03-28T10:13:36.267Z,1021.51
2023-03-28T10:14:40.485Z,1021.50
2023-03-28T10:15:44.820Z,1021.46
2023-03-28T10:16:49.013Z,1021.49
2023-03-28T10:17:53.256Z,1021.49
2023-03-28T10:18:57.362Z,1021.51
2023-03-28T10:20:01.766Z,1021.50
2023-03-28T10:21:05.853Z,1021.56
2023-03-28T10:22:10.086Z,1021.53
2023-03-28T10:23:14.406Z,1021.52
2023-03-28T10:24:18.579Z,1021.52
2023-03-28T10:25:22.782Z,1021.52
2023-03-28T10:26:26.991Z,1021.52
2023-03-28T10:27:31.155Z,1021.54
2023-03-28T10:28:35.332Z,1021.55
2023-03-28T10:29:39.622Z,1021.57
2023-03-28T10:30:43.817Z,1021.54
2023-03-28T10:31:48.026Z,1021.56
2023-03-28T10:32:52.198Z,1021.56
2023-03-28T10:33:56.368Z,1021.58
2023-03-28T10:35:00.537Z,1021.57
2023-03-28T10:36:04.809Z,1021.58
2023-03-28T10:37:08.883Z,1021.61
2023-03-28T10:38:13.169Z,1021.59
2023-03-28T10:39:17.436Z,1021.61
2023-03-28T10:40:21.590Z,1021.57
2023-03-28T10:41:26.202Z,1021.54
2023-03-28T10:42:30.023Z,1021.56
2023-03-28T10:43:34.231Z,1021.52
2023-03-28T10:44:38.404Z,1021.54
2023-03-28T10:45:42.547Z,1021.49
2023-03-28T10:46:46.822Z,1021.47
2023-03-28T10:47:51.029Z,1021.45
2023-03-28T10:48:55.260Z,1021.45
2023-03-28T10:49:59.562Z,1021.46
2023-03-28T10:51:03.614Z,1021.40
2023-03-28T10:52:07.876Z,1021.42
2023-03-28T10:53:12.109Z,1021.45
2023-03-28T10:54:16.301Z,1021.48
2023-03-28T10:55:20.513Z,1021.46
2023-03-28T10:56:24.722Z,1021.47
2023-03-28T10:57:28.929Z,1021.51
2023-03-28T10:58:33.163Z,1021.49
2023-03-28T10:59:37.335Z,1021.51
2023-03-28T11:00:41.637Z,1021.51
2023-03-28T11:01:45.843Z,1021.49
2023-03-28T11:02:50.145Z,1021.48
2023-03-28T11:03:54.443Z,1021.54
2023-03-28T11:04:58.517Z,1021.52
2023-03-28T11:06:09.567Z,1021.52
2023-03-28T11:07:06.989Z,1021.49
2023-03-28T11:08:11.308Z,1021.45
2023-03-28T11:09:15.524Z,1021.40
2023-03-28T11:10:19.761Z,1021.38
2023-03-28T11:11:23.906Z,1021.37
2023-03-28T11:12:29.148Z,1021.41
2023-03-28T11:13:32.300Z,1021.38
2023-03-28T11:14:36.585Z,1021.36
2023-03-28T11:15:40.874Z,1021.31
2023-03-28T11:16:45.045Z,1021.32
2023-03-28T11:17:49.363Z,1021.30
2023-03-28T11:18:53.414Z,1021.32
2023-03-28T11:19:57.709Z,1021.34
2023-03-28T11:21:02.289Z,1021.37
2023-03-28T11:22:06.323Z,1021.39
2023-03-28T11:23:10.561Z,1021.39
2023-03-28T11:24:14.788Z,1021.35
2023-03-28T11:25:19.092Z,1021.34
2023-03-28T11:26:23.299Z,1021.29
2023-03-28T11:27:27.516Z,1021.30
2023-03-28T11:28:31.669Z,1021.29
2023-03-28T11:29:43.261Z,1021.30
2023-03-28T11:30:40.337Z,1021.31
2023-03-28T11:31:44.580Z,1021.28
2023-03-28T11:32:48.861Z,1021.26
2023-03-28T11:33:53.146Z,1021.25
2023-03-28T11:34:57.231Z,1021.24
2023-03-28T11:36:01.622Z,1021.20
2023-03-28T11:37:05.781Z,1021.23
2023-03-28T11:38:10.074Z,1021.22
2023-03-28T11:39:14.272Z,1021.20
2023-03-28T11:40:18.493Z,1021.25
2023-03-28T11:41:22.659Z,1021.25
2023-03-28T11:42:26.881Z,1021.23
2023-03-28T11:43:31.187Z,1021.21
2023-03-28T11:44:35.359Z,1021.21
2023-03-28T11:45:51.234Z,1021.22
2023-03-28T11:46:43.895Z,1021.17
2023-03-28T11:47:48.252Z,1021.15
2023-03-28T11:48:52.345Z,1021.12
2023-03-28T11:49:56.640Z,1021.11
2023-03-28T11:51:00.957Z,1021.14
2023-03-28T11:52:05.100Z,1021.13
2023-03-28T11:53:09.330Z,1021.11
2023-03-28T11:54:13.598Z,1021.11
2023-03-28T11:55:17.811Z,1021.12
2023-03-28T11:56:22.128Z,1021.12
2023-03-28T11:57:26.485Z,1021.13
2023-03-28T11:58:30.624Z,1021.08
2023-03-28T11:59:34.866Z,1021.08
2023-03-28T12:01:43.319Z,1021.05
2023-03-28T12:02:47.722Z,1021.02
2023-03-28T12:03:52.069Z,1021.01
2023-03-28T12:04:56.011Z,1021.00
2023-03-28T12:06:04.940Z,1020.97
2023-03-28T12:07:04.550Z,1020.99
2023-03-28T12:08:08.779Z,1020.99
2023-03-28T12:09:12.935Z,1020.97
2023-03-28T12:10:17.240Z,1021.03
2023-03-28T12:11:21.411Z,1021.03
2023-03-28T12:12:25.729Z,1021.02
2023-03-28T12:13:29.885Z,1021.01
2023-03-28T12:14:34.099Z,1021.01
2023-03-28T12:15:38.404Z,1020.97
2023-03-28T12:16:42.697Z,1020.96
2023-03-28T12:19:14.077Z,1020.95
2023-03-28T12:20:20.076Z,1020.93
2023-03-28T12:21:22.460Z,1020.96
2023-03-28T12:22:26.623Z,1020.93
2023-03-28T12:23:30.912Z,1020.91
2023-03-28T12:24:35.208Z,1020.84
2023-03-28T12:25:39.240Z,1020.80
2023-03-28T12:26:43.497Z,1020.78
2023-03-28T12:27:47.716Z,1020.76
2023-03-28T12:28:51.966Z,1020.82
2023-03-28T12:29:56.168Z,1020.84
2023-03-28T12:31:00.749Z,1020.79
2023-03-28T12:32:04.793Z,1020.76
2023-03-28T12:33:09.144Z,1020.75
2023-03-28T12:34:13.269Z,1020.75
2023-03-28T12:35:17.517Z,1020.74
2023-03-28T12:36:21.786Z,1020.75
2023-03-28T12:37:25.905Z,1020.71
2023-03-28T12:38:30.238Z,1020.70
2023-03-28T12:39:34.483Z,1020.66
2023-03-28T12:40:38.795Z,1020.70
2023-03-28T12:41:43.054Z,1020.71
2023-03-28T12:42:47.294Z,1020.68
2023-03-28T12:43:51.587Z,1020.68
2023-03-28T12:44:55.774Z,1020.66
2023-03-28T12:46:00.154Z,1020.68
2023-03-28T12:47:04.400Z,1020.69
2023-03-28T12:48:08.669Z,1020.75
2023-03-28T12:49:12.993Z,1020.77
2023-03-28T12:50:17.221Z,1020.75
2023-03-28T12:51:21.545Z,1020.67
2023-03-28T12:52:25.748Z,1020.70
2023-03-28T12:53:29.958Z,1020.66
2023-03-28T12:54:34.204Z,1020.62
2023-03-28T12:55:38.403Z,1020.65
2023-03-28T12:56:42.699Z,1020.58
2023-03-28T12:57:47.123Z,1020.61
2023-03-28T12:58:51.241Z,1020.68
2023-03-28T12:59:55.539Z,1020.69
2023-03-28T13:01:00.119Z,1020.65
2023-03-28T13:02:04.066Z,1020.63